Time;durP1;ratioP1;P1;durP2;ratioP2;P2;SDS_P1;SDS_P2;PMS_P1;PMS_P2;Temp;Humidity;BMP_temperature;BMP_pressure;BME280_temperature;BME280_humidity;BME280_pressure;Samples;Min_cycle;Max_cycle;Signal;HPM_P1;HPM_P2
2021/12/03 00:00:24;;;;;;;4.30;2.20;;;;;;;3.92;63.92;96679.13;4968410;28;20180;-85
2021/12/03 00:02:52;;;;;;;3.72;2.05;;;;;;;4.17;63.57;96676.47;4953378;28;20199;-85
2021/12/03 00:05:18;;;;;;;3.85;2.08;;;;;;;4.12;65.12;96671.19;4929865;28;20191;-85
2021/12/03 00:07:43;;;;;;;3.70;2.25;;;;;;;4.05;65.82;96671.25;4953596;28;20322;-85
2021/12/03 00:10:11;;;;;;;4.68;2.35;;;;;;;3.94;65.97;96679.69;4969367;28;20255;-85
2021/12/03 00:12:37;;;;;;;4.47;1.90;;;;;;;3.93;66.23;96673.75;4936963;28;20117;-85
2021/12/03 00:15:04;;;;;;;3.47;2.10;;;;;;;3.89;66.08;96677.78;4953777;28;20203;-85
2021/12/03 00:17:30;;;;;;;5.75;2.28;;;;;;;3.89;65.42;96685.50;4960662;28;20691;-85
2021/12/03 00:19:55;;;;;;;3.58;2.22;;;;;;;3.89;65.13;96680.34;4968193;28;20299;-85
2021/12/03 00:22:20;;;;;;;4.72;2.40;;;;;;;3.96;65.71;96694.94;4937056;28;20298;-85
2021/12/03 00:24:46;;;;;;;4.03;2.03;;;;;;;3.96;65.48;96700.88;4953070;28;20686;-85
2021/12/03 00:27:11;;;;;;;5.30;2.72;;;;;;;3.82;65.96;96697.66;4957327;28;20190;-85
2021/12/03 00:29:37;;;;;;;3.72;2.00;;;;;;;3.92;65.66;96710.84;4969560;28;20410;-85
2021/12/03 00:32:02;;;;;;;5.28;2.67;;;;;;;3.89;66.53;96720.75;4973262;28;20203;-85
2021/12/03 00:34:28;;;;;;;4.63;2.25;;;;;;;3.87;66.22;96720.97;4916769;28;20666;-85
2021/12/03 00:36:55;;;;;;;4.88;2.72;;;;;;;3.87;66.85;96731.28;4966459;28;20239;-85
2021/12/03 00:39:20;;;;;;;4.18;2.40;;;;;;;3.91;66.90;96735.00;4968850;28;20750;-85
2021/12/03 00:41:49;;;;;;;4.30;2.40;;;;;;;3.94;66.67;96737.16;4961551;28;20281;-85
2021/12/03 00:44:14;;;;;;;4.30;2.47;;;;;;;3.98;66.58;96742.66;4964623;28;20744;-85
2021/12/03 00:46:39;;;;;;;4.05;2.83;;;;;;;3.89;66.39;96726.69;4958338;28;20291;-85
2021/12/03 00:49:05;;;;;;;5.28;3.38;;;;;;;3.93;66.11;96740.72;4971973;28;20685;-85
2021/12/03 00:51:30;;;;;;;5.75;4.13;;;;;;;3.91;66.30;96722.13;4972761;28;20271;-85
2021/12/03 00:53:56;;;;;;;6.47;4.00;;;;;;;3.96;64.70;96733.56;4956207;28;20183;-85
2021/12/03 00:56:22;;;;;;;6.05;3.55;;;;;;;3.93;65.81;96742.50;4955398;28;20254;-85
2021/12/03 00:58:47;;;;;;;5.60;3.38;;;;;;;3.88;65.23;96738.00;4950842;28;20269;-85
2021/12/03 01:01:14;;;;;;;5.63;3.72;;;;;;;3.60;66.19;96723.00;4946876;28;20361;-85
2021/12/03 01:03:39;;;;;;;6.35;3.45;;;;;;;3.69;66.08;96738.97;4917533;28;20162;-85
2021/12/03 01:06:05;;;;;;;6.88;3.85;;;;;;;3.61;65.76;96713.47;4917145;28;20263;-85
2021/12/03 01:08:35;;;;;;;6.53;4.40;;;;;;;3.50;65.78;96717.53;4965250;28;20393;-85
2021/12/03 01:11:05;;;;;;;8.77;5.88;;;;;;;3.42;65.95;96733.22;4953739;28;20168;-85
2021/12/03 01:13:31;;;;;;;7.18;5.30;;;;;;;3.32;67.06;96720.81;4985600;28;20176;-85
2021/12/03 01:15:56;;;;;;;8.35;5.18;;;;;;;3.30;66.77;96723.59;4969276;28;20225;-85
2021/12/03 01:18:22;;;;;;;6.18;3.45;;;;;;;3.19;66.80;96727.63;4952257;28;20215;-85
2021/12/03 01:20:47;;;;;;;6.50;3.53;;;;;;;3.18;66.72;96733.75;4936045;28;20596;-85
2021/12/03 01:23:13;;;;;;;8.82;4.45;;;;;;;3.16;67.08;96746.06;4951377;28;20173;-85
2021/12/03 01:25:39;;;;;;;6.78;3.67;;;;;;;3.00;66.83;96721.63;4936252;28;20350;-85
2021/12/03 01:28:05;;;;;;;7.35;4.32;;;;;;;3.04;67.22;96747.72;4936251;28;20237;-85
2021/12/03 01:30:31;;;;;;;10.57;5.57;;;;;;;2.99;67.50;96744.97;4932909;28;20649;-85
2021/12/03 01:32:58;;;;;;;10.02;5.25;;;;;;;3.09;67.48;96755.59;4932830;28;20282;-85
2021/12/03 01:35:25;;;;;;;7.40;4.57;;;;;;;3.13;67.11;96754.19;4932814;28;20193;-85
2021/12/03 01:37:50;;;;;;;7.45;4.20;;;;;;;3.13;67.32;96748.25;4944145;28;20258;-85
2021/12/03 01:40:20;;;;;;;7.90;3.65;;;;;;;3.04;66.67;96757.22;4937077;28;20162;-84
2021/12/03 01:42:45;;;;;;;9.57;4.85;;;;;;;3.03;66.99;96740.97;4935942;28;20168;-84
2021/12/03 01:45:14;;;;;;;8.48;3.92;;;;;;;3.07;66.39;96756.78;4952235;28;20104;-84
2021/12/03 01:47:45;;;;;;;8.02;4.53;;;;;;;3.07;67.10;96755.03;4964787;28;20774;-85
2021/12/03 01:50:11;;;;;;;7.40;3.58;;;;;;;3.13;65.53;96756.75;4931026;28;20208;-84
2021/12/03 01:52:36;;;;;;;6.15;3.35;;;;;;;2.97;65.74;96752.09;4932458;28;20548;-85
2021/12/03 01:55:05;;;;;;;7.95;3.35;;;;;;;2.86;66.63;96756.09;4950142;28;20195;-84
2021/12/03 01:57:31;;;;;;;6.80;3.35;;;;;;;2.87;67.01;96764.63;4932832;28;20634;-84
2021/12/03 01:59:56;;;;;;;7.68;4.05;;;;;;;2.78;67.03;96761.50;4949134;28;20162;-84
2021/12/03 02:02:22;;;;;;;9.80;4.10;;;;;;;2.70;67.05;96754.00;4951409;28;20591;-84
2021/12/03 02:04:47;;;;;;;7.15;3.88;;;;;;;2.73;66.64;96767.25;4947829;28;20154;-84
2021/12/03 02:07:13;;;;;;;8.30;4.13;;;;;;;2.73;66.95;96767.25;4964866;28;20361;-83
2021/12/03 02:09:39;;;;;;;7.32;3.38;;;;;;;2.73;67.30;96771.59;4947815;28;20200;-83
2021/12/03 02:12:08;;;;;;;7.90;3.92;;;;;;;2.70;67.02;96770.22;4932701;28;20239;-83
2021/12/03 02:14:33;;;;;;;8.02;4.13;;;;;;;2.67;66.34;96760.34;4948711;28;20267;-83
2021/12/03 02:16:59;;;;;;;8.10;4.15;;;;;;;2.72;66.68;96770.78;4948823;28;20279;-83
2021/12/03 02:19:24;;;;;;;9.13;4.47;;;;;;;2.80;66.39;96782.63;4948462;28;20274;-83
2021/12/03 02:21:49;;;;;;;9.27;4.10;;;;;;;2.86;65.95;96794.66;4948522;28;20188;-83
2021/12/03 02:24:15;;;;;;;8.00;4.45;;;;;;;2.83;65.79;96807.94;4941571;28;20248;-83
2021/12/03 02:26:42;;;;;;;8.38;3.72;;;;;;;2.80;66.57;96804.00;4951777;28;20288;-83
2021/12/03 02:29:07;;;;;;;8.55;4.13;;;;;;;2.76;65.81;96807.97;4951737;28;20215;-83
2021/12/03 02:31:33;;;;;;;7.15;4.00;;;;;;;2.61;66.15;96812.56;4924275;28;20653;-83
2021/12/03 02:33:58;;;;;;;8.75;4.07;;;;;;;2.49;66.90;96803.91;4915934;28;20192;-83
2021/12/03 02:36:24;;;;;;;9.55;3.80;;;;;;;2.50;66.98;96808.84;4948718;28;20282;-82
2021/12/03 02:38:49;;;;;;;10.18;4.05;;;;;;;2.45;66.95;96806.09;4932076;28;20347;-83
2021/12/03 02:41:16;;;;;;;9.15;4.25;;;;;;;2.40;67.22;96798.19;4916475;28;20106;-83
2021/12/03 02:43:41;;;;;;;8.73;4.45;;;;;;;2.39;67.01;96810.22;4932266;28;20544;-83
2021/12/03 02:46:13;;;;;;;7.35;3.78;;;;;;;2.27;67.08;96801.56;4932209;28;20274;-83
2021/12/03 02:48:39;;;;;;;7.53;4.10;;;;;;;2.41;66.95;96808.25;4915244;28;20709;-83
2021/12/03 02:51:06;;;;;;;7.28;3.80;;;;;;;2.36;66.96;96802.91;4915846;28;20177;-83
2021/12/03 02:53:33;;;;;;;6.95;4.10;;;;;;;2.49;66.46;96806.47;4931981;28;20192;-83
2021/12/03 02:55:58;;;;;;;7.38;4.07;;;;;;;2.54;66.93;96809.22;4916030;28;20219;-83
2021/12/03 02:58:24;;;;;;;7.75;3.67;;;;;;;2.51;66.14;96814.75;4915458;28;20301;-83
2021/12/03 03:00:50;;;;;;;8.95;4.80;;;;;;;2.40;65.75;96819.53;4917062;28;20196;-82
2021/12/03 03:03:16;;;;;;;6.72;3.58;;;;;;;2.37;66.31;96819.94;4933437;28;20196;-83
2021/12/03 03:05:46;;;;;;;6.43;3.60;;;;;;;2.20;66.36;96816.97;4947965;28;20219;-82
2021/12/03 03:08:11;;;;;;;8.77;4.25;;;;;;;2.28;66.50;96815.19;4931316;28;20275;-82
2021/12/03 03:10:41;;;;;;;9.50;4.22;;;;;;;2.28;66.91;96813.44;4964415;28;20540;-82
2021/12/03 03:13:07;;;;;;;7.90;3.78;;;;;;;2.27;66.61;96824.69;4947865;28;20156;-82
2021/12/03 03:15:33;;;;;;;7.80;4.13;;;;;;;2.32;66.30;96821.53;4964246;28;20282;-82
2021/12/03 03:18:08;;;;;;;7.00;3.85;;;;;;;2.09;66.37;96824.50;4931184;28;20286;-82
2021/12/03 03:20:33;;;;;;;;;;;;;;;1.83;67.23;96823.50;4965128;28;20287;-82
2021/12/03 03:22:58;;;;;;;8.93;4.47;;;;;;;2.10;66.84;96808.88;4940655;28;20182;-82
2021/12/03 03:25:24;;;;;;;6.25;3.40;;;;;;;2.14;67.00;96810.09;4957758;28;20160;-82
2021/12/03 03:27:50;;;;;;;7.68;3.80;;;;;;;2.15;67.37;96823.72;4940816;28;20168;-82
2021/12/03 03:30:18;;;;;;;10.55;4.30;;;;;;;2.13;67.31;96831.63;4922913;28;20239;-82
2021/12/03 03:32:44;;;;;;;9.60;4.40;;;;;;;2.20;67.27;96818.78;4954326;28;20706;-82
2021/12/03 03:35:10;;;;;;;9.00;4.22;;;;;;;2.14;66.68;96819.56;4937615;28;20177;-82
2021/12/03 03:37:35;;;;;;;7.25;3.85;;;;;;;2.06;66.52;96818.78;4937624;28;20635;-82
2021/12/03 03:40:03;;;;;;;7.55;3.50;;;;;;;2.08;67.20;96833.22;4956597;28;20168;-81
2021/12/03 03:42:28;;;;;;;8.10;3.92;;;;;;;2.06;67.04;96825.69;4937764;28;20215;-81
2021/12/03 03:44:54;;;;;;;7.85;3.97;;;;;;;2.12;67.37;96831.81;4921115;28;20688;-81
2021/12/03 03:47:19;;;;;;;8.38;3.80;;;;;;;2.05;66.88;96826.69;4953758;28;20674;-81
2021/12/03 03:49:44;;;;;;;8.25;3.35;;;;;;;2.02;67.35;96827.88;4930667;28;20233;-81
2021/12/03 03:52:10;;;;;;;7.28;3.78;;;;;;;2.01;67.33;96840.91;4976796;28;20222;-81
2021/12/03 03:54:35;;;;;;;8.43;3.88;;;;;;;1.98;67.08;96841.28;4976342;28;20118;-81
2021/12/03 03:57:02;;;;;;;8.68;3.97;;;;;;;1.91;67.32;96841.28;4993056;28;20276;-81
2021/12/03 03:59:27;;;;;;;6.63;3.22;;;;;;;1.88;67.11;96836.53;4959620;28;20202;-81
2021/12/03 04:01:53;;;;;;;8.18;3.75;;;;;;;1.87;67.19;96840.91;4999662;28;20622;-81
2021/12/03 04:04:20;;;;;;;7.88;3.78;;;;;;;1.86;67.41;96833.38;4973172;28;20230;-81
2021/12/03 04:06:45;;;;;;;10.07;4.20;;;;;;;1.91;67.77;96838.72;4956456;28;20324;-81
2021/12/03 04:09:11;;;;;;;9.60;3.75;;;;;;;1.90;67.71;96841.50;4956260;28;20338;-81
2021/12/03 04:11:37;;;;;;;6.95;3.22;;;;;;;1.88;67.36;96839.13;4972794;28;20184;-80
2021/12/03 04:14:03;;;;;;;8.57;4.28;;;;;;;1.86;67.26;96841.09;4972792;28;20191;-80
2021/12/03 04:16:31;;;;;;;9.07;3.85;;;;;;;1.82;67.41;96858.66;4972862;28;20173;-80
2021/12/03 04:18:57;;;;;;;8.27;4.15;;;;;;;1.78;67.33;96860.06;4956005;28;20235;-80
2021/12/03 04:21:23;;;;;;;7.95;4.20;;;;;;;1.80;67.44;96860.66;4972560;28;20395;-80
2021/12/03 04:23:49;;;;;;;7.75;3.95;;;;;;;1.73;67.13;96854.72;4949880;28;20289;-80
2021/12/03 04:26:14;;;;;;;9.02;4.00;;;;;;;1.79;67.48;96853.13;4972993;28;20198;-80
2021/12/03 04:28:40;;;;;;;9.55;4.03;;;;;;;1.79;67.85;96848.00;4939791;28;20197;-80
2021/12/03 04:31:08;;;;;;;10.25;4.15;;;;;;;1.78;67.43;96859.25;4919929;28;20262;-80
2021/12/03 04:33:34;;;;;;;10.05;4.40;;;;;;;1.81;68.24;96838.31;4969276;28;20192;-80
2021/12/03 04:36:00;;;;;;;10.05;4.45;;;;;;;1.91;67.75;96859.25;4936661;28;20695;-80
2021/12/03 04:38:25;;;;;;;8.05;4.47;;;;;;;1.86;67.01;96851.38;4952909;28;20187;-80
2021/12/03 04:40:51;;;;;;;14.18;4.80;;;;;;;1.89;67.62;96850.97;4953206;28;20582;-80
2021/12/03 04:43:16;;;;;;;8.65;4.50;;;;;;;1.90;67.03;96855.09;4953115;28;20652;-80
2021/12/03 04:45:42;;;;;;;10.73;4.60;;;;;;;1.89;67.53;96848.41;4952956;28;20202;-80
2021/12/03 04:48:08;;;;;;;10.02;4.25;;;;;;;1.88;67.67;96849.38;4952325;28;20313;-80
2021/12/03 04:50:37;;;;;;;8.20;4.15;;;;;;;1.90;67.57;96854.31;4952683;28;20247;-80
2021/12/03 04:53:04;;;;;;;10.27;4.38;;;;;;;1.90;66.91;96860.25;4952548;28;20708;-80
2021/12/03 04:55:29;;;;;;;8.75;4.72;;;;;;;1.93;67.26;96872.69;4987386;28;20248;-79
2021/12/03 04:57:55;;;;;;;9.27;4.38;;;;;;;1.92;67.24;96867.75;4968875;28;20195;-80
2021/12/03 05:00:26;;;;;;;9.23;3.95;;;;;;;1.79;67.31;96861.63;4969353;28;20270;-80
2021/12/03 05:02:53;;;;;;;8.15;4.10;;;;;;;1.84;67.61;96855.91;4932603;28;20236;-80
2021/12/03 05:05:19;;;;;;;9.07;4.90;;;;;;;1.86;67.31;96853.94;4949253;28;20239;-80
2021/12/03 05:08:01;;;;;;;11.38;4.85;;;;;;;1.81;66.98;96861.44;4965683;28;20716;-79
2021/12/03 05:10:29;;;;;;;10.48;4.85;;;;;;;1.74;66.89;96865.75;4940530;28;20691;-79
2021/12/03 05:13:08;;;;;;;8.45;3.75;;;;;;;1.65;67.45;96858.25;4939167;28;20765;-79
2021/12/03 05:15:35;;;;;;;8.68;3.88;;;;;;;1.72;67.31;96865.97;4948955;28;20199;-79
2021/12/03 05:18:01;;;;;;;9.80;5.25;;;;;;;1.76;66.92;96866.34;4915525;28;20327;-79
2021/12/03 05:20:27;;;;;;;8.68;4.20;;;;;;;1.69;67.16;96863.78;4948979;28;20379;-79
2021/12/03 05:22:53;;;;;;;8.43;4.55;;;;;;;1.73;67.20;96853.91;4951192;28;20203;-79
2021/12/03 05:25:19;;;;;;;8.68;4.75;;;;;;;1.76;67.17;96854.31;4935947;28;20211;-79
2021/12/03 05:27:45;;;;;;;8.10;4.20;;;;;;;1.77;66.83;96857.69;4952100;28;20301;-79
2021/12/03 05:30:10;;;;;;;9.40;4.32;;;;;;;1.76;66.99;96853.53;4968843;28;20729;-79
2021/12/03 05:32:36;;;;;;;10.27;4.40;;;;;;;1.77;66.96;96855.91;4935896;28;20198;-79
2021/12/03 05:35:02;;;;;;;7.82;4.28;;;;;;;1.81;66.89;96861.44;4952037;28;20697;-79
2021/12/03 05:37:27;;;;;;;8.70;4.80;;;;;;;1.89;67.30;96866.38;4968376;28;20293;-79
2021/12/03 05:39:53;;;;;;;12.43;4.68;;;;;;;1.81;67.32;96866.56;4951683;28;20318;-79
2021/12/03 05:42:18;;;;;;;11.25;5.05;;;;;;;1.83;66.84;96867.97;4954571;28;20168;-79
2021/12/03 05:44:44;;;;;;;10.40;4.78;;;;;;;1.79;66.99;96876.25;4967764;28;20806;-79
2021/12/03 05:47:09;;;;;;;13.32;5.63;;;;;;;1.80;67.19;96875.22;4951196;28;20195;-79
2021/12/03 05:49:34;;;;;;;8.77;5.03;;;;;;;1.91;67.54;96872.09;4931660;28;20261;-79
2021/12/03 05:52:00;;;;;;;11.02;5.80;;;;;;;1.95;67.38;96870.72;4964899;28;20249;-80
2021/12/03 05:54:26;;;;;;;9.88;5.22;;;;;;;1.96;67.43;96858.69;4954819;28;20565;-80
2021/12/03 05:56:51;;;;;;;10.68;5.18;;;;;;;2.01;67.29;96872.50;4955216;28;20210;-79
2021/12/03 05:59:17;;;;;;;9.95;5.72;;;;;;;2.09;66.84;96878.44;4970968;28;20232;-79
2021/12/03 06:01:42;;;;;;;8.52;4.88;;;;;;;2.10;66.92;96890.28;4985507;28;20128;-79
2021/12/03 06:04:08;;;;;;;13.85;5.22;;;;;;;2.01;67.24;96890.47;4971323;28;20188;-79
2021/12/03 06:06:33;;;;;;;9.82;5.20;;;;;;;2.03;67.18;96885.94;4984778;28;20271;-79
2021/12/03 06:08:58;;;;;;;9.90;4.63;;;;;;;2.07;67.10;96894.03;4953396;28;20185;-79
2021/12/03 06:11:25;;;;;;;12.40;5.55;;;;;;;2.12;67.47;96890.88;4931865;28;20339;-79
2021/12/03 06:13:50;;;;;;;11.68;5.35;;;;;;;2.16;67.25;96890.28;4948081;28;20256;-79
2021/12/03 06:16:16;;;;;;;12.82;5.95;;;;;;;2.29;66.76;96894.63;4947832;28;20255;-79
2021/12/03 06:18:41;;;;;;;11.23;5.20;;;;;;;2.37;66.96;96906.50;4947280;28;20299;-79
2021/12/03 06:21:09;;;;;;;10.80;5.43;;;;;;;2.31;67.03;96902.91;4947417;28;21968;-80
2021/12/03 06:23:35;;;;;;;13.02;5.18;;;;;;;2.35;67.27;96898.19;4939054;28;20355;-79
2021/12/03 06:26:07;;;;;;;13.07;5.57;;;;;;;2.34;66.94;96907.66;4967878;28;20222;-80
2021/12/03 06:28:33;;;;;;;10.88;5.43;;;;;;;2.30;66.79;96913.41;4967094;28;20258;-80
2021/12/03 06:30:58;;;;;;;12.48;5.68;;;;;;;2.27;67.06;96919.72;4972543;28;20247;-80
2021/12/03 06:33:24;;;;;;;10.32;5.70;;;;;;;2.34;67.10;96917.94;4935893;28;20858;-80
2021/12/03 06:35:50;;;;;;;11.13;5.78;;;;;;;2.46;66.73;96932.78;4960867;28;20249;-80
2021/12/03 06:38:16;;;;;;;11.48;6.00;;;;;;;2.50;66.67;96936.53;4933919;28;20273;-80
2021/12/03 06:40:43;;;;;;;15.23;6.75;;;;;;;2.53;66.22;96936.13;4950808;28;20803;-80
2021/12/03 06:43:08;;;;;;;15.05;6.93;;;;;;;2.46;66.80;96937.91;4934328;28;20195;-80
2021/12/03 06:45:34;;;;;;;12.88;5.85;;;;;;;2.58;67.13;96946.59;4934171;28;20271;-80
2021/12/03 06:48:00;;;;;;;12.32;6.22;;;;;;;2.51;66.47;96935.53;4933775;28;20195;-80
2021/12/03 06:50:25;;;;;;;12.88;5.82;;;;;;;2.54;66.12;96942.88;4934249;28;20326;-80
2021/12/03 06:53:06;;;;;;;11.93;6.45;;;;;;;2.63;66.86;96946.81;4947138;28;20650;-80
2021/12/03 06:58:11;;;;;;;11.52;5.82;;;;;;;2.51;67.64;96940.69;4984107;28;20759;-80
2021/12/03 07:00:36;;;;;;;13.18;6.22;;;;;;;2.61;67.39;96934.16;4950065;28;20164;-80
2021/12/03 07:03:04;;;;;;;14.07;6.35;;;;;;;2.62;66.66;96934.94;4960077;28;20125;-80
2021/12/03 07:05:30;;;;;;;12.07;5.72;;;;;;;2.73;67.03;96928.41;4969858;28;20195;-80
2021/12/03 07:07:55;;;;;;;11.88;5.40;;;;;;;2.73;66.66;96934.34;4968459;28;20179;-80
2021/12/03 07:10:21;;;;;;;13.60;5.93;;;;;;;2.78;66.45;96934.53;4973815;28;20140;-80
2021/12/03 07:12:48;;;;;;;10.48;5.60;;;;;;;2.79;66.46;96935.31;4933494;28;20672;-80
2021/12/03 07:15:14;;;;;;;12.75;5.43;;;;;;;2.80;67.34;96936.91;5001926;28;20471;-81
2021/12/03 07:17:39;;;;;;;13.35;6.10;;;;;;;2.76;66.55;96936.50;4960770;28;20265;-80
2021/12/03 07:20:06;;;;;;;10.40;5.20;;;;;;;2.85;67.16;96944.03;4949639;28;20698;-80
2021/12/03 07:22:33;;;;;;;11.07;5.78;;;;;;;2.86;66.97;96933.50;4949430;28;20200;-80
2021/12/03 07:24:58;;;;;;;10.35;5.43;;;;;;;2.88;66.76;96943.59;4947402;28;20278;-80
2021/12/03 07:27:25;;;;;;;11.23;5.25;;;;;;;2.91;66.63;96948.34;4965576;28;20202;-80
2021/12/03 07:29:50;;;;;;;11.05;5.63;;;;;;;2.96;67.02;96940.81;4965460;28;20368;-80
2021/12/03 07:32:21;;;;;;;10.30;5.22;;;;;;;2.78;66.50;96952.53;4951618;28;20324;-80
2021/12/03 07:34:47;;;;;;;13.25;5.65;;;;;;;2.97;66.24;96950.13;4945650;28;20354;-80
2021/12/03 07:37:13;;;;;;;9.48;5.32;;;;;;;2.88;67.12;96959.03;4941774;28;20306;-80
2021/12/03 07:39:39;;;;;;;10.25;5.80;;;;;;;2.99;66.35;96945.56;4935792;28;20200;-80
2021/12/03 07:42:05;;;;;;;11.75;5.82;;;;;;;3.04;66.73;96955.25;4949628;28;20181;-80
2021/12/03 07:44:31;;;;;;;11.65;5.65;;;;;;;3.06;66.38;96954.06;4913048;28;20196;-80
2021/12/03 07:46:56;;;;;;;10.40;5.40;;;;;;;3.10;66.25;96964.72;4946270;28;20290;-80
2021/12/03 07:49:23;;;;;;;11.88;5.97;;;;;;;3.10;66.44;96962.97;4929095;28;20674;-80
2021/12/03 07:51:49;;;;;;;10.82;5.20;;;;;;;2.89;67.10;96966.53;4931473;28;20239;-80
2021/12/03 07:54:14;;;;;;;7.75;4.43;;;;;;;2.96;66.71;96967.31;4971166;28;20496;-80
2021/12/03 07:56:40;;;;;;;9.25;4.95;;;;;;;3.07;65.86;96958.22;4963009;28;20607;-80
2021/12/03 07:59:05;;;;;;;9.30;4.57;;;;;;;3.05;66.37;96952.50;4948374;28;20727;-80
2021/12/03 08:01:31;;;;;;;8.13;4.68;;;;;;;2.77;67.18;96958.63;4965096;28;20271;-80
2021/12/03 08:03:59;;;;;;;8.68;4.15;;;;;;;2.68;68.21;96959.84;4932751;28;20278;-80
2021/12/03 08:06:24;;;;;;;6.68;4.30;;;;;;;2.74;67.48;96964.19;4949031;28;20606;-80
2021/12/03 08:08:52;;;;;;;7.68;4.72;;;;;;;2.80;67.70;96971.09;4966060;28;20174;-80
2021/12/03 08:11:18;;;;;;;7.65;4.68;;;;;;;2.89;67.70;96976.81;4932648;28;20239;-80
2021/12/03 08:13:43;;;;;;;8.68;4.78;;;;;;;2.92;66.11;96981.56;4962056;28;20633;-80
2021/12/03 08:16:09;;;;;;;8.25;4.43;;;;;;;2.46;68.10;96987.53;4968337;28;20538;-79
2021/12/03 08:18:35;;;;;;;10.90;4.53;;;;;;;2.70;67.93;96983.56;4967878;28;20221;-80
2021/12/03 08:21:02;;;;;;;9.02;4.88;;;;;;;2.73;67.58;96990.09;4952203;28;20544;-80
2021/12/03 08:23:28;;;;;;;6.60;4.22;;;;;;;2.78;67.53;96991.09;4973507;28;20191;-80
2021/12/03 08:25:53;;;;;;;7.95;4.38;;;;;;;2.85;66.79;96987.72;4952823;28;20290;-80
2021/12/03 08:28:19;;;;;;;10.30;4.05;;;;;;;2.80;67.23;96996.03;4935563;28;20207;-79
2021/12/03 08:30:44;;;;;;;8.23;5.13;;;;;;;2.80;67.82;97003.75;4951968;28;20265;-81
2021/12/03 08:33:09;;;;;;;10.82;4.68;;;;;;;2.85;67.69;97006.50;4975854;28;20223;-80
2021/12/03 08:35:35;;;;;;;8.90;5.18;;;;;;;2.84;66.83;96999.78;4968035;28;20220;-80
2021/12/03 08:38:00;;;;;;;11.15;5.00;;;;;;;2.75;68.32;97003.53;4948541;28;20219;-80
2021/12/03 08:40:26;;;;;;;12.07;5.30;;;;;;;2.76;68.00;96994.81;4970037;28;20357;-80
2021/12/03 08:42:52;;;;;;;9.35;4.75;;;;;;;2.79;67.68;97005.53;4941477;28;20215;-80
2021/12/03 08:45:20;;;;;;;10.85;5.00;;;;;;;2.89;67.72;96996.63;4961029;28;20330;-81
2021/12/03 08:47:49;;;;;;;10.32;5.53;;;;;;;2.78;68.13;96991.09;4973748;28;20340;-81
2021/12/03 08:50:17;;;;;;;11.20;4.75;;;;;;;2.79;67.65;96987.53;4949283;28;20188;-80
2021/12/03 08:53:02;;;;;;;9.63;4.80;;;;;;;2.95;67.17;96985.53;4965460;28;20180;-80
2021/12/03 08:55:27;;;;;;;10.87;5.23;;;;;;;3.07;67.77;96993.41;4968217;28;20207;-81
2021/12/03 08:57:52;;;;;;;10.13;5.30;;;;;;;3.11;67.06;96994.59;4951881;28;20320;-81
2021/12/03 09:00:22;;;;;;;12.27;4.80;;;;;;;3.11;67.39;96986.91;4968084;28;20215;-80
2021/12/03 09:02:47;;;;;;;14.35;5.70;;;;;;;3.10;67.13;96988.69;4953111;28;20259;-80
2021/12/03 09:05:13;;;;;;;10.13;4.65;;;;;;;3.08;67.13;96995.78;4951935;28;20888;-80
2021/12/03 09:07:39;;;;;;;9.35;5.00;;;;;;;2.99;67.63;96976.44;4967697;28;20187;-80
2021/12/03 09:10:10;;;;;;;10.90;4.03;;;;;;;2.93;67.59;96984.94;4951312;28;20366;-80
2021/12/03 09:12:35;;;;;;;9.13;3.97;;;;;;;2.83;68.28;96971.69;4951305;28;20199;-80
2021/12/03 09:15:05;;;;;;;8.00;3.72;;;;;;;2.90;68.02;96962.22;4951190;28;20215;-80
2021/12/03 09:24:02;;;;;;;7.30;3.38;;;;;;;2.98;67.78;96962.78;4951544;28;20219;-80
2021/12/03 09:26:03;;;;;;;7.10;3.83;;;;;;;2.98;67.54;96967.13;4959856;28;20207;-80
2021/12/03 09:28:29;;;;;;;7.80;4.00;;;;;;;3.03;67.31;96966.53;4936329;28;20204;-80
2021/12/03 09:30:57;;;;;;;10.73;4.95;;;;;;;2.91;67.74;96966.34;4956812;28;20649;-80
2021/12/03 09:33:27;;;;;;;12.30;4.75;;;;;;;3.03;68.02;96971.66;4939935;28;20203;-80
2021/12/03 09:35:56;;;;;;;11.10;4.72;;;;;;;2.94;68.56;96973.66;4985771;28;20165;-81
2021/12/03 09:38:21;;;;;;;10.02;5.38;;;;;;;2.98;68.35;96969.69;4954230;28;20313;-80
2021/12/03 09:40:47;;;;;;;10.95;5.47;;;;;;;2.83;68.87;96984.53;4954233;28;20276;-80
2021/12/03 09:43:13;;;;;;;13.10;5.97;;;;;;;2.98;67.17;96979.97;4966799;28;20267;-79
2021/12/03 09:45:40;;;;;;;13.70;6.35;;;;;;;2.94;68.78;96983.94;4937294;28;20684;-80
2021/12/03 09:48:17;;;;;;;13.57;6.70;;;;;;;3.05;67.50;96993.63;4964769;28;20372;-80
2021/12/03 09:50:43;;;;;;;13.82;5.90;;;;;;;3.08;67.54;96984.72;4953299;28;20747;-80
2021/12/03 09:56:00;;;;;;;13.18;5.60;;;;;;;3.08;67.34;96990.66;4948273;28;20373;-80
2021/12/03 09:59:20;;;;;;;12.63;5.00;;;;;;;3.04;67.35;96974.03;4935990;28;20280;-80
2021/12/03 10:01:18;;;;;;;11.52;5.28;;;;;;;2.93;67.13;96972.06;4963875;28;20709;-81
2021/12/03 10:04:02;;;;;;;11.60;5.63;;;;;;;2.88;67.53;96961.59;4959539;28;20206;-81
2021/12/03 10:15:17;;;;;;;12.27;5.95;;;;;;;2.58;68.37;96970.50;4963647;28;20717;-82
2021/12/03 10:17:57;;;;;;;14.35;5.65;;;;;;;2.84;67.48;96968.91;4914589;28;20305;-80
2021/12/03 10:23:33;;;;;;;14.18;5.85;;;;;;;2.85;67.57;96969.72;4932413;28;20192;-80
2021/12/03 10:28:59;;;;;;;12.93;6.13;;;;;;;2.64;68.66;96958.69;4984422;28;20266;-80
2021/12/03 11:12:27;;;;;;;12.07;5.28;;;;;;;2.61;67.22;96917.94;4954576;28;20274;-80
2021/12/03 11:28:54;;;;;;;7.85;4.07;;;;;;;2.67;67.62;96911.97;4945979;28;20360;-80
2021/12/03 12:15:52;;;;;;;7.50;3.30;;;;;;;2.90;66.46;96854.22;5006837;28;20202;-80
2021/12/03 13:00:53;;;;;;;7.95;3.78;;;;;;;3.08;65.79;96799.53;4958406;28;20282;-81
2021/12/03 13:03:15;;;;;;;5.47;3.25;;;;;;;3.03;66.07;96805.28;4951996;28;20287;-80
2021/12/03 13:10:55;;;;;;;6.38;3.47;;;;;;;3.42;65.38;96790.63;4950397;28;20189;-81
2021/12/03 13:27:00;;;;;;;6.25;3.17;;;;;;;3.43;65.33;96776.78;4934911;28;20169;-80
2021/12/03 14:00:07;;;;;;;4.25;2.72;;;;;;;3.75;65.24;96735.53;4989396;28;20160;-80
2021/12/03 14:02:49;;;;;;;9.50;3.03;;;;;;;3.62;64.84;96728.72;4985242;28;20214;-80
2021/12/03 14:43:23;;;;;;;6.82;3.00;;;;;;;3.77;65.03;96689.78;4947518;28;20214;-80
2021/12/03 14:57:17;;;;;;;5.90;3.00;;;;;;;3.59;65.37;96684.59;4966422;28;20231;-81
2021/12/03 14:59:52;;;;;;;4.88;2.50;;;;;;;3.69;65.23;96677.19;4958719;28;20871;-81
2021/12/03 15:02:41;;;;;;;5.22;2.05;;;;;;;3.75;64.74;96678.88;4938726;28;20226;-81
2021/12/03 15:07:43;;;;;;;4.82;2.25;;;;;;;3.46;65.88;96667.47;4939495;28;20346;-81
2021/12/03 15:10:13;;;;;;;4.90;2.58;;;;;;;3.68;65.66;96668.63;4967006;28;20272;-81
2021/12/03 15:13:05;;;;;;;5.15;2.47;;;;;;;3.60;65.66;96658.63;4950794;28;20289;-80
2021/12/03 15:21:26;;;;;;;4.95;2.30;;;;;;;3.65;65.17;96655.41;4974341;28;20211;-81
2021/12/03 15:24:31;;;;;;;5.50;2.33;;;;;;;3.73;65.07;96650.00;4936549;28;20307;-81
2021/12/03 15:27:05;;;;;;;6.63;2.78;;;;;;;3.61;65.52;96634.44;4953777;28;20737;-81
2021/12/03 15:29:58;;;;;;;5.45;2.95;;;;;;;3.69;65.11;96625.69;4952802;28;20243;-82
2021/12/03 15:33:08;;;;;;;3.90;2.72;;;;;;;3.55;65.29;96625.81;4954710;28;20394;-81
2021/12/03 16:04:26;;;;;;;4.43;2.47;;;;;;;3.55;64.88;96625.81;4938466;28;20320;-82
2021/12/03 16:09:47;;;;;;;4.35;3.25;;;;;;;3.64;65.65;96612.66;4975252;28;20689;-81
2021/12/03 16:20:48;;;;;;;4.10;2.33;;;;;;;3.71;64.58;96606.44;4958085;28;20217;-83
2021/12/03 16:23:22;;;;;;;5.80;2.70;;;;;;;3.76;64.59;96605.78;4957498;28;20199;-81
2021/12/03 16:52:31;;;;;;;4.45;2.63;;;;;;;3.43;65.09;96562.38;4943485;28;20343;-83
2021/12/03 16:54:58;;;;;;;5.78;2.70;;;;;;;3.72;64.80;96576.34;4950396;28;20391;-83
2021/12/03 16:57:44;;;;;;;6.00;3.17;;;;;;;3.59;64.56;96558.47;4953406;28;20645;-82
2021/12/03 17:00:24;;;;;;;4.03;2.35;;;;;;;3.56;64.55;96560.47;4935256;28;20283;-82
2021/12/03 17:02:57;;;;;;;5.57;2.15;;;;;;;3.69;63.85;96553.59;4946142;28;20356;-83
2021/12/03 17:11:14;;;;;;;5.07;3.03;;;;;;;3.48;64.68;96553.03;4982128;28;20428;-82
2021/12/03 17:56:24;;;;;;;3.83;2.20;;;;;;;3.49;64.40;96503.09;4965473;28;20219;-81
2021/12/03 17:59:35;;;;;;;3.28;2.38;;;;;;;3.46;64.38;96495.84;4968090;28;20220;-81
2021/12/03 18:02:31;;;;;;;3.45;1.70;;;;;;;3.41;65.17;96500.84;4972127;28;20468;-82
2021/12/03 18:07:20;;;;;;;4.60;1.77;;;;;;;3.55;64.87;96486.03;4968390;28;20199;-83
2021/12/03 18:10:54;;;;;;;5.40;2.10;;;;;;;3.71;64.10;96490.56;4934934;28;20318;-83
2021/12/03 18:18:40;;;;;;;8.18;2.00;;;;;;;3.50;65.07;96470.47;4969782;28;20239;-81
2021/12/03 18:56:22;;;;;;;4.43;1.90;;;;;;;3.82;65.17;96406.69;4976559;28;20270;-82